Gem No.5 — 3EQK2 — position and weather

sailwx.info

Track history (hours):
 
Tides and Currents Weather Stations Pressure Air Temp Water Temp Dewpoint Dewpoint Depression Visibility Wind Speed Wind Dir Waves Ship Positions

Gem No.5

Last reported at 2018-Jul-24 12:11 UTC. Time now 2018-Aug-19 15:18 UTC.
Position N 01°22' E 103°17'.
Warning: this ship's position is 26 days out of date.

Length 330 m; draft 11 m.

Type: Tanker. MMSI: 351551000.

Date/timePositionNaut miles runAvg speedWind from/ knotsBaromVisibWave heightAir tempDewpointWater temp
2018-Jul-24 12:11N 01°22' E 103°17'313.3
2018-Jul-24 11:56N 01°20' E 103°19'511.6
2018-Jul-24 11:30N 01°16' E 103°23'612.7
2018-Jul-24 11:00N 01°14' E 103°29'612.4
2018-Jul-24 10:31N 01°12' E 103°34'612.2
2018-Jul-24 10:00N 01°10' E 103°40'611.7
2018-Jul-24 09:30N 01°09' E 103°46'713.4
2018-Jul-24 09:00N 01°13' E 103°52'612.1
2018-Jul-24 08:30N 01°15' E 103°58'4 8.4
2018-Jul-24 07:59N 01°16' E 104°02'3 6.3
2018-Jul-24 07:30N 01°18' E 104°05'0 0.4
2018-Jul-24 07:00N 01°18' E 104°05'0 0.0
2018-Jul-24 06:16N 01°18' E 104°05'0 0.0
2018-Jul-24 05:54N 01°18' E 104°05'0 0.1
2018-Jul-24 04:35N 01°18' E 104°05'0 0.0
2018-Jul-24 02:46N 01°18' E 104°05'0 0.0
2018-Jul-24 02:13N 01°18' E 104°05'0 0.2
2018-Jul-24 01:52N 01°18' E 104°05'0 0.0
2018-Jul-24 00:51N 01°18' E 104°05'0 0.2
2018-Jul-24 00:25N 01°18' E 104°05'0 0.1
2018-Jul-23 23:55N 01°18' E 104°05'0 0.0
2018-Jul-23 23:28N 01°18' E 104°05'0 0.1
2018-Jul-23 22:58N 01°18' E 104°05'0 0.1
2018-Jul-23 21:46N 01°18' E 104°05'0 0.0
2018-Jul-23 21:30N 01°18' E 104°05'0 0.0
2018-Jul-23 20:54N 01°18' E 104°05'0 0.0
2018-Jul-23 20:30N 01°18' E 104°05'0 0.0
2018-Jul-23 19:25N 01°18' E 104°05'0 0.0
2018-Jul-23 18:55N 01°18' E 104°05'0 0.0
2018-Jul-23 18:28N 01°18' E 104°05'0 0.0
2018-Jul-23 17:54N 01°18' E 104°05'0 0.0
2018-Jul-23 17:22N 01°18' E 104°05'0 0.0
2018-Jul-23 16:54N 01°18' E 104°05'0 0.0
2018-Jul-23 16:19N 01°18' E 104°05'0 0.1
2018-Jul-23 15:52N 01°18' E 104°05'0 0.2
2018-Jul-23 15:28N 01°18' E 104°05'0 0.0
2018-Jul-23 14:57N 01°18' E 104°05'0 0.0
2018-Jul-23 14:26N 01°18' E 104°05'1 1.4
2018-Jul-23 13:58N 01°17' E 104°05'2 3.3
2018-Jul-23 13:30N 01°17' E 104°07'3 5.5
2018-Jul-23 13:00N 01°17' E 104°10'4 8.5
2018-Jul-23 12:30N 01°18' E 104°14'4 7.9
2018-Jul-23 11:59N 01°18' E 104°18'4 8.3
2018-Jul-23 11:30N 01°20' E 104°21'5 8.8
2018-Jul-23 10:59N 01°23' E 104°25'5 8.3
2018-Jul-23 10:24N 01°27' E 104°28'  
2018-Jul-18 05:46N 22°28' E 119°41'414.0
2018-Jul-18 05:27N 22°33' E 119°41'713.6
2018-Jul-18 04:57N 22°39' E 119°41'613.6
2018-Jul-18 04:29N 22°46' E 119°42'713.5
2018-Jul-18 04:00N 22°52' E 119°42'612.8
2018-Jul-18 03:30N 22°59' E 119°42'612.5
2018-Jul-18 03:00N 23°05' E 119°43'  
Track history (hours):
 
Tides and Currents Weather Stations Pressure Air Temp Water Temp Dewpoint Dewpoint Depression Visibility Wind Speed Wind Dir Waves Ship Positions

Gem No.5

Last reported at 2018-Jul-24 12:11 UTC. Time now 2018-Aug-19 15:18 UTC.
Position N 01°22' E 103°17'.
Warning: this ship's position is 26 days out of date.

Length 330 m; draft 11 m.

Type: Tanker. MMSI: 351551000.

Date/timePositionNaut miles runAvg speedWind from/ knotsBaromVisibWave heightAir tempDewpointWater temp
2018-Jul-24 12:11N 01°22' E 103°17'313.3
2018-Jul-24 11:56N 01°20' E 103°19'511.6
2018-Jul-24 11:30N 01°16' E 103°23'612.7
2018-Jul-24 11:00N 01°14' E 103°29'612.4
2018-Jul-24 10:31N 01°12' E 103°34'612.2
2018-Jul-24 10:00N 01°10' E 103°40'611.7
2018-Jul-24 09:30N 01°09' E 103°46'713.4
2018-Jul-24 09:00N 01°13' E 103°52'612.1
2018-Jul-24 08:30N 01°15' E 103°58'4 8.4
2018-Jul-24 07:59N 01°16' E 104°02'3 6.3
2018-Jul-24 07:30N 01°18' E 104°05'0 0.4
2018-Jul-24 07:00N 01°18' E 104°05'0 0.0
2018-Jul-24 06:16N 01°18' E 104°05'0 0.0
2018-Jul-24 05:54N 01°18' E 104°05'0 0.1
2018-Jul-24 04:35N 01°18' E 104°05'0 0.0
2018-Jul-24 02:46N 01°18' E 104°05'0 0.0
2018-Jul-24 02:13N 01°18' E 104°05'0 0.2
2018-Jul-24 01:52N 01°18' E 104°05'0 0.0
2018-Jul-24 00:51N 01°18' E 104°05'0 0.2
2018-Jul-24 00:25N 01°18' E 104°05'0 0.1
2018-Jul-23 23:55N 01°18' E 104°05'0 0.0
2018-Jul-23 23:28N 01°18' E 104°05'0 0.1
2018-Jul-23 22:58N 01°18' E 104°05'0 0.1
2018-Jul-23 21:46N 01°18' E 104°05'0 0.0
2018-Jul-23 21:30N 01°18' E 104°05'0 0.0
2018-Jul-23 20:54N 01°18' E 104°05'0 0.0
2018-Jul-23 20:30N 01°18' E 104°05'0 0.0
2018-Jul-23 19:25N 01°18' E 104°05'0 0.0
2018-Jul-23 18:55N 01°18' E 104°05'0 0.0
2018-Jul-23 18:28N 01°18' E 104°05'0 0.0
2018-Jul-23 17:54N 01°18' E 104°05'0 0.0
2018-Jul-23 17:22N 01°18' E 104°05'0 0.0
2018-Jul-23 16:54N 01°18' E 104°05'0 0.0
2018-Jul-23 16:19N 01°18' E 104°05'0 0.1
2018-Jul-23 15:52N 01°18' E 104°05'0 0.2
2018-Jul-23 15:28N 01°18' E 104°05'0 0.0
2018-Jul-23 14:57N 01°18' E 104°05'0 0.0
2018-Jul-23 14:26N 01°18' E 104°05'1 1.4
2018-Jul-23 13:58N 01°17' E 104°05'2 3.3
2018-Jul-23 13:30N 01°17' E 104°07'3 5.5
2018-Jul-23 13:00N 01°17' E 104°10'4 8.5
2018-Jul-23 12:30N 01°18' E 104°14'4 7.9
2018-Jul-23 11:59N 01°18' E 104°18'4 8.3
2018-Jul-23 11:30N 01°20' E 104°21'5 8.8
2018-Jul-23 10:59N 01°23' E 104°25'5 8.3
2018-Jul-23 10:24N 01°27' E 104°28'  
2018-Jul-18 05:46N 22°28' E 119°41'414.0
2018-Jul-18 05:27N 22°33' E 119°41'713.6
2018-Jul-18 04:57N 22°39' E 119°41'613.6
2018-Jul-18 04:29N 22°46' E 119°42'713.5
2018-Jul-18 04:00N 22°52' E 119°42'612.8
2018-Jul-18 03:30N 22°59' E 119°42'612.5
2018-Jul-18 03:00N 23°05' E 119°43'  

Dump ship's entire track history